createdAt,value
2018-05-12T00:01:59.628Z,101841.77
2018-05-12T00:05:02.951Z,101829.34
2018-05-12T00:08:06.281Z,101831.44
2018-05-12T00:11:09.609Z,101831.78
2018-05-12T00:14:12.917Z,101826.64
2018-05-12T00:17:16.240Z,101822.77
2018-05-12T00:20:19.544Z,101811.34
2018-05-12T00:23:22.881Z,101813.42
2018-05-12T00:26:26.189Z,101807.97
2018-05-12T00:29:29.517Z,101800.55
2018-05-12T00:32:33.593Z,101812.91
2018-05-12T00:35:36.918Z,101816.48
2018-05-12T00:38:41.004Z,101810.16
2018-05-12T00:41:44.322Z,101813.97
2018-05-12T00:44:47.648Z,101814.14
2018-05-12T00:47:50.968Z,101811.73
2018-05-12T00:50:54.270Z,101817.93
2018-05-12T00:53:57.597Z,101812.47
2018-05-12T00:57:00.905Z,101814.05
2018-05-12T01:00:04.230Z,101803.63
2018-05-12T01:03:07.555Z,101806.34
2018-05-12T01:06:10.865Z,101800.73
2018-05-12T01:09:14.209Z,101804.83
2018-05-12T01:12:18.278Z,101801.17
2018-05-12T01:15:21.610Z,101801.94
2018-05-12T01:18:25.700Z,101795.12
2018-05-12T01:21:29.000Z,101789.31
2018-05-12T01:24:32.329Z,101786.14
2018-05-12T01:27:36.397Z,101779.66
2018-05-12T01:30:39.716Z,101780.23
2018-05-12T01:33:43.031Z,101776.28
2018-05-12T01:36:47.161Z,101774.62
2018-05-12T01:39:50.494Z,101779.25
2018-05-12T01:42:53.808Z,101780.33
2018-05-12T01:45:57.136Z,101784.66
2018-05-12T01:49:01.218Z,101782.96
2018-05-12T01:52:04.577Z,101780.86
2018-05-12T01:55:07.886Z,101786.24
2018-05-12T01:58:11.209Z,101774.78
2018-05-12T02:01:14.546Z,101782.15
2018-05-12T02:04:18.637Z,101778.87
2018-05-12T02:07:22.794Z,101774.98
2018-05-12T02:10:26.061Z,101774.69
2018-05-12T02:13:30.140Z,101775.64
2018-05-12T02:16:33.461Z,101778.59
2018-05-12T02:19:36.807Z,101778.08
2018-05-12T02:22:40.113Z,101780.29
2018-05-12T02:25:43.437Z,101775.05
2018-05-12T02:28:46.749Z,101778.50
2018-05-12T02:31:50.082Z,101773.34
2018-05-12T02:34:53.393Z,101781.61
2018-05-12T02:37:56.717Z,101778.27
2018-05-12T02:41:00.034Z,101779.52
2018-05-12T02:44:03.341Z,101781.30
2018-05-12T02:47:07.419Z,101773.53
2018-05-12T02:50:10.725Z,101781.28
2018-05-12T02:53:14.054Z,101779.06
2018-05-12T02:59:20.749Z,101779.58
2018-05-12T03:02:24.822Z,101777.49
2018-05-12T03:05:28.144Z,101767.92
2018-05-12T03:08:31.472Z,101767.06
2018-05-12T03:11:34.776Z,101771.06
2018-05-12T03:14:38.094Z,101770.42
2018-05-12T03:17:41.407Z,101766.23
2018-05-12T03:20:44.761Z,101770.42
2018-05-12T03:23:48.078Z,101764.68
2018-05-12T03:26:51.404Z,101762.42
2018-05-12T03:29:54.736Z,101764.87
2018-05-12T03:32:58.814Z,101778.33
2018-05-12T03:36:02.136Z,101773.61
2018-05-12T03:39:05.439Z,101771.59
2018-05-12T03:42:09.526Z,101772.23
2018-05-12T03:45:12.828Z,101772.51
2018-05-12T03:48:16.594Z,101763.81
2018-05-12T03:51:19.912Z,101764.23
2018-05-12T03:54:23.208Z,101773.78
2018-05-12T03:57:26.536Z,101774.00
2018-05-12T04:00:30.600Z,101766.45
2018-05-12T04:03:33.922Z,101771.58
2018-05-12T04:06:55.021Z,101770.00
2018-05-12T04:10:16.125Z,101774.52
2018-05-12T04:13:20.224Z,101775.38
2018-05-12T04:16:23.524Z,101784.51
2018-05-12T04:19:26.858Z,101780.41
2018-05-12T04:22:30.165Z,101782.30
2018-05-12T04:25:33.498Z,101783.99
2018-05-12T04:28:36.806Z,101779.34
2018-05-12T04:31:40.124Z,101778.09
2018-05-12T04:34:43.441Z,101780.91
2018-05-12T04:37:46.756Z,101780.39
2018-05-12T04:40:50.076Z,101784.19
2018-05-12T04:43:54.152Z,101785.42
2018-05-12T04:46:57.477Z,101779.44
2018-05-12T04:50:01.558Z,101781.30
2018-05-12T04:53:04.889Z,101786.41
2018-05-12T04:56:08.958Z,101789.89
2018-05-12T04:59:12.289Z,101783.84
2018-05-12T05:02:15.609Z,101784.91
2018-05-12T05:05:19.688Z,101786.88
2018-05-12T05:08:23.024Z,101790.53
2018-05-12T05:11:26.333Z,101789.05
2018-05-12T05:14:29.658Z,101792.27
2018-05-12T05:17:32.969Z,101787.73
2018-05-12T05:20:36.298Z,101793.69
2018-05-12T05:23:40.385Z,101793.80
2018-05-12T05:26:43.714Z,101793.67
2018-05-12T05:29:47.789Z,101797.45
2018-05-12T05:32:51.114Z,101800.53
2018-05-12T05:35:54.429Z,101801.66
2018-05-12T05:38:57.755Z,101795.01
2018-05-12T05:42:01.070Z,101799.73
2018-05-12T05:45:04.419Z,101797.47
2018-05-12T05:48:07.725Z,101791.98
2018-05-12T05:51:11.051Z,101799.59
2018-05-12T05:54:15.322Z,101796.21
2018-05-12T05:57:18.865Z,101799.84
2018-05-12T06:00:22.322Z,101796.09
2018-05-12T06:03:26.420Z,101799.91
2018-05-12T06:06:30.661Z,101797.86
2018-05-12T06:09:34.318Z,101794.39
2018-05-12T06:12:37.677Z,101793.32
2018-05-12T06:15:41.062Z,101802.94
2018-05-12T06:18:44.649Z,101799.15
2018-05-12T06:21:48.760Z,101798.31
2018-05-12T06:24:52.554Z,101802.70
2018-05-12T06:27:56.046Z,101796.16
2018-05-12T06:30:59.639Z,101796.58
2018-05-12T06:34:02.940Z,101796.39
2018-05-12T06:37:06.287Z,101802.42
2018-05-12T06:40:09.593Z,101800.58
2018-05-12T06:43:13.205Z,101798.16
2018-05-12T06:46:16.913Z,101805.45
2018-05-12T06:49:20.330Z,101805.89
2018-05-12T06:52:23.696Z,101808.86
2018-05-12T06:55:27.232Z,101803.02
2018-05-12T06:58:30.566Z,101812.05
2018-05-12T07:01:34.717Z,101806.67
2018-05-12T07:04:38.076Z,101810.93
2018-05-12T07:07:41.578Z,101810.59
2018-05-12T07:10:45.683Z,101807.39
2018-05-12T07:13:49.132Z,101814.80
2018-05-12T07:16:52.478Z,101812.67
2018-05-12T07:19:55.844Z,101813.75
2018-05-12T07:22:59.196Z,101810.88
2018-05-12T07:26:03.270Z,101812.78
2018-05-12T07:29:06.598Z,101811.72
2018-05-12T07:32:09.910Z,101811.28
2018-05-12T07:35:13.985Z,101805.92
2018-05-12T07:38:17.310Z,101811.22
2018-05-12T07:41:21.389Z,101815.47
2018-05-12T07:44:24.718Z,101815.69
2018-05-12T07:47:28.824Z,101815.86
2018-05-12T07:50:32.138Z,101819.56
2018-05-12T07:53:36.233Z,101816.11
2018-05-12T07:56:39.564Z,101820.95
2018-05-12T07:59:42.897Z,101817.97
2018-05-12T08:02:46.202Z,101817.22
2018-05-12T08:05:49.525Z,101820.30
2018-05-12T08:08:52.830Z,101821.78
2018-05-12T08:11:56.920Z,101827.98
2018-05-12T08:15:00.275Z,101824.42
2018-05-12T08:18:03.814Z,101819.34
2018-05-12T08:21:07.289Z,101818.75
2018-05-12T08:24:10.600Z,101817.73
2018-05-12T08:27:13.961Z,101814.91
2018-05-12T08:30:17.392Z,101818.94
2018-05-12T08:33:20.877Z,101814.50
2018-05-12T08:36:24.331Z,101803.60
2018-05-12T08:39:29.260Z,101806.13
2018-05-12T08:42:32.809Z,101800.70
2018-05-12T08:45:36.172Z,101802.45
2018-05-12T08:48:40.305Z,101797.55
2018-05-12T08:51:44.443Z,101796.27
2018-05-12T08:54:48.645Z,101798.66
2018-05-12T08:57:52.001Z,101795.47
2018-05-12T09:00:55.615Z,101790.48
2018-05-12T09:03:58.984Z,101787.18
2018-05-12T09:07:02.333Z,101795.33
2018-05-12T09:10:05.829Z,101795.14
2018-05-12T09:13:09.917Z,101793.13
2018-05-12T09:16:13.367Z,101794.67
2018-05-12T09:19:16.722Z,101787.59
2018-05-12T09:22:20.084Z,101787.41
2018-05-12T09:25:23.421Z,101790.08
2018-05-12T09:28:27.834Z,101790.59
2018-05-12T09:31:31.169Z,101785.81
2018-05-12T09:34:34.477Z,101784.42
2018-05-12T09:37:37.811Z,101778.14
2018-05-12T09:40:41.127Z,101782.61
2018-05-12T09:43:45.293Z,101780.22
2018-05-12T09:46:48.622Z,101788.19
2018-05-12T09:49:51.954Z,101783.55
2018-05-12T09:52:56.031Z,101792.83
2018-05-12T09:55:59.350Z,101789.61
2018-05-12T09:59:03.518Z,101779.08
2018-05-12T10:02:06.837Z,101781.59
2018-05-12T10:05:10.136Z,101777.34
2018-05-12T10:08:13.444Z,101772.61
2018-05-12T10:11:16.761Z,101772.14
2018-05-12T10:14:20.845Z,101772.23
2018-05-12T10:17:24.165Z,101771.27
2018-05-12T10:20:28.242Z,101771.67
2018-05-12T10:23:31.565Z,101774.70
2018-05-12T10:26:34.885Z,101769.49
2018-05-12T10:29:38.985Z,101765.69
2018-05-12T10:32:43.052Z,101761.23
2018-05-12T10:35:46.372Z,101760.13
2018-05-12T10:38:49.683Z,101766.50
2018-05-12T10:41:53.778Z,101761.81
2018-05-12T10:44:57.101Z,101749.23
2018-05-12T10:48:00.417Z,101756.44
2018-05-12T10:51:04.500Z,101755.06
2018-05-12T10:54:07.822Z,101758.78
2018-05-12T10:57:11.910Z,101756.86
2018-05-12T11:00:15.229Z,101751.61
2018-05-12T11:03:19.333Z,101750.14
2018-05-12T11:06:22.638Z,101740.53
2018-05-12T11:09:26.749Z,101746.38
2018-05-12T11:12:30.057Z,101734.11
2018-05-12T11:15:33.365Z,101733.17
2018-05-12T11:18:36.669Z,101723.50
2018-05-12T11:21:40.025Z,101717.45
2018-05-12T11:24:43.305Z,101719.13
2018-05-12T11:27:46.617Z,101721.21
2018-05-12T11:30:49.924Z,101719.41
2018-05-12T11:33:53.232Z,101726.02
2018-05-12T11:36:57.297Z,101725.30
2018-05-12T11:40:00.615Z,101728.28
2018-05-12T11:43:03.922Z,101730.04
2018-05-12T11:46:07.249Z,101729.53
2018-05-12T11:49:10.553Z,101734.45
2018-05-12T11:52:13.877Z,101737.03
2018-05-12T11:55:17.185Z,101729.78
2018-05-12T11:58:20.523Z,101720.75
2018-05-12T12:01:24.600Z,101721.94
2018-05-12T12:04:27.938Z,101721.59
2018-05-12T12:07:32.004Z,101719.79
2018-05-12T12:10:35.318Z,101714.22
2018-05-12T12:13:38.643Z,101715.28
2018-05-12T12:16:42.801Z,101715.39
2018-05-12T12:19:46.835Z,101717.84
2018-05-12T12:22:50.172Z,101718.15
2018-05-12T12:25:53.485Z,101722.03
2018-05-12T12:28:56.809Z,101719.47
2018-05-12T12:32:00.107Z,101724.31
2018-05-12T12:35:03.425Z,101725.57
2018-05-12T12:38:06.729Z,101723.34
2018-05-12T12:41:10.059Z,101721.13
2018-05-12T12:44:14.277Z,101718.83
2018-05-12T12:47:17.609Z,101719.79
2018-05-12T12:50:20.928Z,101712.23
2018-05-12T12:53:24.246Z,101710.70
2018-05-12T12:56:28.432Z,101711.97
2018-05-12T12:59:31.742Z,101711.63
2018-05-12T13:02:35.116Z,101712.75
2018-05-12T13:05:38.443Z,101710.67
2018-05-12T13:08:41.749Z,101708.33
2018-05-12T13:11:45.836Z,101711.24
2018-05-12T13:14:49.149Z,101708.22
2018-05-12T13:17:52.479Z,101712.39
2018-05-12T13:20:55.794Z,101709.78
2018-05-12T13:23:59.121Z,101699.97
2018-05-12T13:27:02.549Z,101697.63
2018-05-12T13:30:06.692Z,101698.47
2018-05-12T13:33:10.018Z,101694.89
2018-05-12T13:36:13.542Z,101691.20
2018-05-12T13:39:16.882Z,101683.48
2018-05-12T13:42:20.209Z,101688.98
2018-05-12T13:45:23.528Z,101685.83
2018-05-12T13:48:26.853Z,101680.03
2018-05-12T13:51:30.922Z,101680.18
2018-05-12T13:54:34.237Z,101682.27
2018-05-12T13:57:37.538Z,101674.16
2018-05-12T14:00:40.862Z,101672.27
2018-05-12T14:03:44.946Z,101673.77
2018-05-12T14:06:48.266Z,101673.20
2018-05-12T14:09:52.343Z,101670.86
2018-05-12T14:12:55.664Z,101674.34
2018-05-12T14:15:58.970Z,101660.14
2018-05-12T14:19:03.145Z,101657.13
2018-05-12T14:22:06.389Z,101654.24
2018-05-12T14:25:10.457Z,101652.44
2018-05-12T14:28:13.778Z,101649.83
2018-05-12T14:31:17.090Z,101655.08
2018-05-12T14:34:21.277Z,101657.71
2018-05-12T14:37:24.580Z,101655.51
2018-05-12T14:40:27.930Z,101659.52
2018-05-12T14:43:31.237Z,101665.04
2018-05-12T14:46:34.560Z,101662.56
2018-05-12T14:49:37.871Z,101669.59
2018-05-12T14:52:41.203Z,101662.09
2018-05-12T14:55:44.514Z,101652.39
2018-05-12T14:58:48.606Z,101657.37
2018-05-12T15:01:52.694Z,101654.44
2018-05-12T15:04:56.004Z,101656.59
2018-05-12T15:07:59.315Z,101658.37
2018-05-12T15:11:03.433Z,101664.28
2018-05-12T15:14:07.511Z,101651.14
2018-05-12T15:17:10.832Z,101655.34
2018-05-12T15:20:14.913Z,101657.50
2018-05-12T15:23:18.270Z,101653.45
2018-05-12T15:26:21.594Z,101651.06
2018-05-12T15:29:24.916Z,101657.24
2018-05-12T15:32:28.231Z,101649.08
2018-05-12T15:35:32.318Z,101650.09
2018-05-12T15:38:35.640Z,101653.47
2018-05-12T15:41:39.749Z,101646.27
2018-05-12T15:44:43.061Z,101642.50
2018-05-12T15:47:47.155Z,101646.31
2018-05-12T15:50:50.485Z,101646.03
2018-05-12T15:53:54.560Z,101631.67
2018-05-12T15:56:57.882Z,101639.11
2018-05-12T16:00:01.973Z,101637.48
2018-05-12T16:03:05.298Z,101633.37
2018-05-12T16:06:09.401Z,101627.57
2018-05-12T16:09:13.485Z,101634.34
2018-05-12T16:12:16.911Z,101629.16
2018-05-12T16:15:20.156Z,101628.22
2018-05-12T16:18:24.249Z,101622.59
2018-05-12T16:21:27.562Z,101620.51
2018-05-12T16:24:30.877Z,101622.85
2018-05-12T16:27:34.191Z,101620.12
2018-05-12T16:30:37.512Z,101620.72
2018-05-12T16:33:41.587Z,101619.96
2018-05-12T16:36:44.906Z,101608.14
2018-05-12T16:39:48.220Z,101610.64
2018-05-12T16:42:52.313Z,101603.30
2018-05-12T16:45:55.616Z,101607.39
2018-05-12T16:48:58.918Z,101601.39
2018-05-12T16:52:02.249Z,101596.56
2018-05-12T16:55:05.557Z,101596.89
2018-05-12T16:58:08.896Z,101592.92
2018-05-12T17:01:12.212Z,101595.30
2018-05-12T17:04:16.306Z,101597.25
2018-05-12T17:07:19.625Z,101596.63
2018-05-12T17:10:22.956Z,101598.22
2018-05-12T17:13:26.268Z,101603.03
2018-05-12T17:16:29.580Z,101605.98
2018-05-12T17:19:32.877Z,101602.34
2018-05-12T17:22:36.213Z,101603.56
2018-05-12T17:25:40.289Z,101594.96
2018-05-12T17:28:43.627Z,101596.43
2018-05-12T17:31:47.723Z,101598.34
2018-05-12T17:34:51.050Z,101591.98
2018-05-12T17:37:54.400Z,101591.80
2018-05-12T17:40:57.710Z,101598.00
2018-05-12T17:44:01.030Z,101596.48
2018-05-12T17:47:05.120Z,101596.89
2018-05-12T17:50:08.451Z,101594.98
2018-05-12T17:53:11.765Z,101597.65
2018-05-12T17:56:15.085Z,101593.17
2018-05-12T17:59:18.412Z,101590.91
2018-05-12T18:02:22.501Z,101587.40
2018-05-12T18:05:25.805Z,101585.13
2018-05-12T18:08:29.120Z,101585.22
2018-05-12T18:11:32.452Z,101586.73
2018-05-12T18:14:36.530Z,101589.00
2018-05-12T18:17:39.846Z,101585.89
2018-05-12T18:20:43.929Z,101590.58
2018-05-12T18:23:47.225Z,101589.54
2018-05-12T18:26:50.550Z,101589.98
2018-05-12T18:29:54.612Z,101584.11
2018-05-12T18:32:58.013Z,101591.78
2018-05-12T18:36:01.254Z,101600.61
2018-05-12T18:39:06.304Z,101594.88
2018-05-12T18:42:09.548Z,101602.56
2018-05-12T18:45:12.898Z,101598.77
2018-05-12T18:48:17.152Z,101599.52
2018-05-12T18:51:20.469Z,101602.58
2018-05-12T18:54:23.812Z,101600.82
2018-05-12T18:57:27.132Z,101603.96
2018-05-12T19:00:31.222Z,101602.41
2018-05-12T19:03:34.533Z,101595.34
2018-05-12T19:06:37.858Z,101598.47
2018-05-12T19:09:41.167Z,101601.14
2018-05-12T19:12:44.480Z,101603.37
2018-05-12T19:15:47.791Z,101609.67
2018-05-12T19:18:51.868Z,101608.22
2018-05-12T19:21:55.189Z,101617.15
2018-05-12T19:24:58.494Z,101619.21
2018-05-12T19:28:02.572Z,101614.94
2018-05-12T19:31:05.949Z,101617.13
2018-05-12T19:34:09.226Z,101616.25
2018-05-12T19:37:12.530Z,101610.77
2018-05-12T19:40:15.866Z,101608.77
2018-05-12T19:43:19.189Z,101615.12
2018-05-12T19:46:22.497Z,101611.21
2018-05-12T19:49:26.577Z,101608.41
2018-05-12T19:52:29.908Z,101607.86
2018-05-12T19:55:33.990Z,101608.03
2018-05-12T19:58:37.309Z,101608.14
2018-05-12T20:01:41.427Z,101612.80
2018-05-12T20:04:45.502Z,101611.30
2018-05-12T20:07:48.825Z,101610.88
2018-05-12T20:10:52.142Z,101615.19
2018-05-12T20:13:56.214Z,101621.29
2018-05-12T20:16:59.527Z,101624.60
2018-05-12T20:20:02.846Z,101629.41
2018-05-12T20:23:06.919Z,101617.80
2018-05-12T20:26:10.245Z,101623.69
2018-05-12T20:29:13.558Z,101628.36
2018-05-12T20:32:17.637Z,101628.58
2018-05-12T20:35:20.945Z,101628.86
2018-05-12T20:38:24.271Z,101623.57
2018-05-12T20:41:27.590Z,101623.27
2018-05-12T20:44:31.693Z,101620.91
2018-05-12T20:47:35.064Z,101621.98
2018-05-12T20:50:38.318Z,101615.70
2018-05-12T20:53:41.650Z,101611.87
2018-05-12T20:56:44.966Z,101614.52
2018-05-12T20:59:48.300Z,101616.39
2018-05-12T21:02:51.609Z,101612.23
2018-05-12T21:05:54.950Z,101615.14
2018-05-12T21:08:59.026Z,101610.20
2018-05-12T21:12:02.345Z,101606.45
2018-05-12T21:15:05.665Z,101604.28
2018-05-12T21:18:08.978Z,101602.05
2018-05-12T21:21:12.302Z,101600.44
2018-05-12T21:24:15.605Z,101607.72
2018-05-12T21:27:18.930Z,101613.69
2018-05-12T21:30:22.237Z,101608.16
2018-05-12T21:33:26.339Z,101603.24
2018-05-12T21:36:30.434Z,101609.55
2018-05-12T21:39:33.758Z,101613.56
2018-05-12T21:42:37.066Z,101614.53
2018-05-12T21:45:41.157Z,101603.03
2018-05-12T21:48:44.478Z,101608.31
2018-05-12T21:51:48.582Z,101608.51
2018-05-12T21:54:52.663Z,101606.58
2018-05-12T21:57:55.987Z,101612.19
2018-05-12T22:00:59.303Z,101609.41
2018-05-12T22:04:03.409Z,101604.69
2018-05-12T22:07:07.489Z,101607.32
2018-05-12T22:10:10.810Z,101601.48
2018-05-12T22:13:14.121Z,101603.37
2018-05-12T22:16:18.204Z,101604.34
2018-05-12T22:19:21.510Z,101609.39
2018-05-12T22:22:24.829Z,101607.53
2018-05-12T22:25:28.896Z,101601.38
2018-05-12T22:28:32.222Z,101604.68
2018-05-12T22:31:35.530Z,101598.23
2018-05-12T22:34:39.625Z,101593.84
2018-05-12T22:37:42.930Z,101597.28
2018-05-12T22:40:46.248Z,101597.67
2018-05-12T22:43:50.343Z,101601.83
2018-05-12T22:46:53.650Z,101598.15
2018-05-12T22:49:57.744Z,101593.52
2018-05-12T22:53:01.056Z,101599.56
2018-05-12T22:56:05.132Z,101592.95
2018-05-12T22:59:08.553Z,101588.22
2018-05-12T23:02:11.857Z,101594.51
2018-05-12T23:05:16.033Z,101589.52
2018-05-12T23:08:19.373Z,101597.92
2018-05-12T23:11:22.682Z,101584.38
2018-05-12T23:14:26.769Z,101584.41
2018-05-12T23:17:30.085Z,101578.65
2018-05-12T23:20:33.422Z,101582.33
2018-05-12T23:23:36.730Z,101573.05
2018-05-12T23:26:40.046Z,101572.53
2018-05-12T23:29:43.353Z,101569.84
2018-05-12T23:32:46.669Z,101566.02
2018-05-12T23:35:50.750Z,101558.51
2018-05-12T23:38:54.069Z,101564.50
2018-05-12T23:41:57.400Z,101563.96
2018-05-12T23:45:00.709Z,101563.81
2018-05-12T23:48:04.025Z,101569.52
2018-05-12T23:51:07.336Z,101571.11
2018-05-12T23:54:10.662Z,101561.88
2018-05-12T23:57:13.973Z,101561.02
